Aviation Digital Data Service (ADDS)

Output produced by METARs form (1648 UTC 16 June 2019)
found at http://www.aviationweather.gov/metar/data/
 
TAF MKJP 161115Z 1612/1712 15018KT 9999 FEW022 
     PROB30 
     TEMPO 1620/1623 SCT020 FEW022CB 
     BECMG 1704/1706 01005KT FEW024
       
TAF MKJS 161115Z 1612/1712 07017KT 9999 FEW022 FEW024CB 
     TEMPO 1620/1623 8000 SHRA SCT020 SCT022CB 
     BECMG 1701/1703 14005KT